Time;durP1;ratioP1;P1;durP2;ratioP2;P2;SDS_P1;SDS_P2;PMS_P1;PMS_P2;Temp;Humidity;BMP_temperature;BMP_pressure;BME280_temperature;BME280_humidity;BME280_pressure;Samples;Min_cycle;Max_cycle;Signal;HPM_P1;HPM_P2
2023/03/05 00:02:25;;;;;;;8.13;6.53;;;;;;;2.66;100.00;101564.56;5019642;28;21056;-45
2023/03/05 00:04:53;;;;;;;6.80;6.20;;;;;;;2.60;100.00;101547.47;5019859;28;20839;-46
2023/03/05 00:07:20;;;;;;;6.77;6.30;;;;;;;2.58;100.00;101561.72;5020279;28;20433;-43
2023/03/05 00:09:49;;;;;;;6.80;5.60;;;;;;;2.55;100.00;101549.66;5018952;28;20456;-44
2023/03/05 00:12:16;;;;;;;8.70;6.17;;;;;;;2.51;100.00;101561.38;5019549;28;20449;-45
2023/03/05 00:14:45;;;;;;;5.30;4.80;;;;;;;2.51;100.00;101544.78;5019377;28;21147;-44
2023/03/05 00:17:13;;;;;;;10.53;6.50;;;;;;;2.48;100.00;101545.81;5019116;28;20440;-47
2023/03/05 00:19:41;;;;;;;5.63;5.13;;;;;;;2.47;100.00;101540.69;5019496;28;20429;-46
2023/03/05 00:22:08;;;;;;;5.90;5.40;;;;;;;2.42;100.00;101540.25;5019047;28;20509;-47
2023/03/05 00:24:36;;;;;;;7.67;5.00;;;;;;;2.44;100.00;101538.31;5019672;28;20437;-49
2023/03/05 00:27:04;;;;;;;6.70;6.20;;;;;;;2.44;100.00;101528.63;5019839;28;20448;-50
2023/03/05 00:29:32;;;;;;;6.20;5.73;;;;;;;2.43;100.00;101531.38;5018709;28;20433;-48
2023/03/05 00:32:01;;;;;;;20.07;6.40;;;;;;;2.40;100.00;101529.84;5019818;28;20536;-46
2023/03/05 00:34:30;;;;;;;6.00;5.50;;;;;;;2.36;100.00;101523.13;5019426;28;20436;-45
2023/03/05 00:36:58;;;;;;;6.50;5.50;;;;;;;2.37;100.00;101526.59;5018663;28;20443;-46
2023/03/05 00:39:26;;;;;;;6.80;6.03;;;;;;;2.34;100.00;101524.22;5019072;28;20487;-45
2023/03/05 00:41:53;;;;;;;5.87;5.37;;;;;;;2.35;100.00;101520.66;5018848;28;20481;-48
2023/03/05 00:44:21;;;;;;;5.70;5.20;;;;;;;2.34;100.00;101519.81;5019286;28;20459;-48
2023/03/05 00:46:49;;;;;;;7.53;5.90;;;;;;;2.32;100.00;101520.88;5020082;28;20456;-44
2023/03/05 00:49:18;;;;;;;8.10;7.40;;;;;;;2.30;100.00;101512.28;5045620;28;20439;-51
2023/03/05 00:51:45;;;;;;;5.70;5.33;;;;;;;2.31;100.00;101508.69;5047611;28;20470;-47
2023/03/05 00:54:13;;;;;;;8.07;5.93;;;;;;;2.31;100.00;101514.78;5057975;28;20450;-46
2023/03/05 00:56:40;;;;;;;5.73;5.40;;;;;;;2.27;100.00;101513.34;5059023;28;20439;-46
2023/03/05 00:59:09;;;;;;;6.03;5.03;;;;;;;2.28;100.00;101514.19;5059124;28;20434;-47
2023/03/05 01:01:37;;;;;;;6.87;5.23;;;;;;;2.28;100.00;101498.41;5058250;28;20475;-46
2023/03/05 01:04:05;;;;;;;5.87;5.67;;;;;;;2.25;100.00;101502.13;5058885;28;20427;-46
2023/03/05 01:06:33;;;;;;;5.90;5.60;;;;;;;2.17;100.00;101500.13;5058223;28;20443;-45
2023/03/05 01:09:01;;;;;;;7.63;6.90;;;;;;;2.17;100.00;101500.13;5059213;28;20427;-44
2023/03/05 01:11:30;;;;;;;7.87;6.00;;;;;;;2.11;100.00;101498.00;5057848;28;21007;-44
2023/03/05 01:13:58;;;;;;;6.00;5.47;;;;;;;2.13;100.00;101487.31;5058055;28;20699;-44
2023/03/05 01:16:26;;;;;;;14.30;6.40;;;;;;;2.10;100.00;101493.69;5058807;28;20466;-45
2023/03/05 01:18:53;;;;;;;6.33;5.77;;;;;;;2.11;100.00;101494.53;5059349;28;20459;-44
2023/03/05 01:21:21;;;;;;;5.83;5.53;;;;;;;2.08;100.00;101479.81;5058002;28;20482;-44
2023/03/05 01:23:50;;;;;;;6.30;5.90;;;;;;;2.06;100.00;101483.53;5058114;28;20435;-44
2023/03/05 01:26:18;;;;;;;7.43;5.40;;;;;;;2.01;100.00;101481.25;5058007;28;20431;-44
2023/03/05 01:28:46;;;;;;;8.63;6.30;;;;;;;1.97;100.00;101473.75;5058292;28;20431;-48
2023/03/05 01:31:13;;;;;;;11.80;5.97;;;;;;;1.95;100.00;101465.97;5057914;28;20980;-46
2023/03/05 01:33:41;;;;;;;9.40;5.63;;;;;;;1.96;100.00;101472.06;5059136;28;20447;-48
2023/03/05 01:36:13;;;;;;;5.53;5.20;;;;;;;1.92;100.00;101471.47;5057885;28;20435;-49
2023/03/05 01:38:41;;;;;;;7.03;5.73;;;;;;;1.92;100.00;101460.97;5058387;28;20438;-48
2023/03/05 01:41:12;;;;;;;6.63;5.63;;;;;;;1.93;100.00;101465.28;5057848;28;20456;-47
2023/03/05 01:43:40;;;;;;;6.60;5.47;;;;;;;1.96;100.00;101464.19;5058700;28;20489;-46
2023/03/05 01:46:34;;;;;;;7.87;5.53;;;;;;;1.96;100.00;101464.19;5057909;28;20450;-47
2023/03/05 01:49:08;;;;;;;7.17;4.80;;;;;;;1.94;100.00;101460.84;5058196;28;20801;-44
2023/03/05 01:51:40;;;;;;;9.27;5.40;;;;;;;1.97;100.00;101456.16;5057315;28;20462;-48
2023/03/05 01:54:11;;;;;;;9.77;5.90;;;;;;;2.00;100.00;101465.63;5058086;28;20479;-47
2023/03/05 01:56:41;;;;;;;5.97;5.50;;;;;;;2.02;100.00;101450.53;5058452;28;20488;-45
2023/03/05 01:59:10;;;;;;;5.33;4.93;;;;;;;2.03;100.00;101454.84;5058732;28;20434;-45
2023/03/05 02:01:41;;;;;;;6.57;5.87;;;;;;;2.02;100.00;101450.53;5057051;28;20542;-46
2023/03/05 02:04:14;;;;;;;9.27;5.90;;;;;;;2.02;100.00;101443.50;5057677;28;20458;-45
2023/03/05 02:06:43;;;;;;;5.60;5.20;;;;;;;1.96;100.00;101443.13;5057505;28;20427;-45
2023/03/05 02:09:11;;;;;;;6.53;5.60;;;;;;;1.95;100.00;101447.56;5058633;28;20433;-47
2023/03/05 02:11:41;;;;;;;14.83;6.23;;;;;;;1.94;100.00;101442.44;5057112;28;20451;-43
2023/03/05 02:14:09;;;;;;;41.10;6.47;;;;;;;1.95;100.00;101439.66;5057429;28;20431;-47
2023/03/05 02:16:38;;;;;;;8.53;5.80;;;;;;;1.98;100.00;101433.31;5057956;28;20494;-44
2023/03/05 02:19:10;;;;;;;8.03;5.40;;;;;;;2.04;100.00;101430.19;5058009;28;20434;-48
2023/03/05 02:21:41;;;;;;;6.17;5.57;;;;;;;2.04;100.00;101420.50;5057864;28;21022;-47
2023/03/05 02:24:11;;;;;;;6.93;5.40;;;;;;;2.09;100.00;101422.78;5057926;28;20470;-45
2023/03/05 02:26:39;;;;;;;7.83;5.63;;;;;;;2.04;100.00;101423.13;5058435;28;20428;-48
2023/03/05 02:29:10;;;;;;;6.20;5.87;;;;;;;2.04;100.00;101425.78;5057796;28;20432;-49
2023/03/05 02:31:37;;;;;;;6.47;6.07;;;;;;;2.04;100.00;101420.50;5057626;28;20467;-44
2023/03/05 02:34:06;;;;;;;6.80;6.10;;;;;;;2.04;100.00;101414.41;5057742;28;20427;-45
2023/03/05 02:36:34;;;;;;;6.07;5.67;;;;;;;2.05;100.00;101416.09;5059996;28;20441;-49
2023/03/05 02:39:04;;;;;;;7.30;6.60;;;;;;;2.06;100.00;101417.78;5062930;28;20798;-49
2023/03/05 02:41:32;;;;;;;6.40;5.83;;;;;;;2.10;100.00;101408.66;5062178;28;20471;-47
2023/03/05 02:43:59;;;;;;;6.47;5.97;;;;;;;2.16;100.00;101410.78;5062269;28;20535;-44
2023/03/05 02:46:27;;;;;;;6.43;5.80;;;;;;;2.16;100.00;101405.50;5061821;28;20435;-44
2023/03/05 02:48:55;;;;;;;10.90;6.80;;;;;;;2.16;100.00;101405.50;5061768;28;20489;-49
2023/03/05 02:51:23;;;;;;;8.93;8.07;;;;;;;2.16;100.00;101408.16;5061213;28;20550;-44
2023/03/05 02:53:50;;;;;;;10.90;8.50;;;;;;;2.12;100.00;101406.75;5061863;28;20828;-47
2023/03/05 02:56:19;;;;;;;9.97;9.10;;;;;;;2.10;100.00;101406.00;5062082;28;20435;-47
2023/03/05 02:58:47;;;;;;;8.90;8.00;;;;;;;2.09;100.00;101402.53;5061886;28;20998;-46
2023/03/05 03:01:14;;;;;;;11.43;9.37;;;;;;;2.13;100.00;101408.41;5061326;28;20470;-45
2023/03/05 03:03:42;;;;;;;9.13;8.40;;;;;;;2.10;100.00;101398.97;5061763;28;20471;-44
2023/03/05 03:06:10;;;;;;;8.90;8.30;;;;;;;2.05;100.00;101395.03;5061798;28;20453;-48
2023/03/05 03:08:38;;;;;;;9.90;8.83;;;;;;;2.00;100.00;101399.84;5061317;28;20804;-47
2023/03/05 03:11:07;;;;;;;9.33;8.73;;;;;;;1.98;100.00;101391.25;5060426;28;20459;-48
2023/03/05 03:13:36;;;;;;;9.10;8.53;;;;;;;1.97;100.00;101389.59;5060766;28;20440;-49
2023/03/05 03:16:06;;;;;;;9.40;8.90;;;;;;;1.94;100.00;101395.09;5060697;28;20469;-43
2023/03/05 03:18:34;;;;;;;10.80;9.90;;;;;;;1.87;100.00;101384.25;5060206;28;20924;-45
2023/03/05 03:21:02;;;;;;;9.90;9.20;;;;;;;1.82;100.00;101391.69;5060298;28;20461;-45
2023/03/05 03:23:31;;;;;;;10.07;9.30;;;;;;;1.78;100.00;101384.97;5060010;28;20475;-47
2023/03/05 03:25:59;;;;;;;9.53;8.80;;;;;;;1.74;100.00;101374.81;5060575;28;20751;-44
2023/03/05 03:28:26;;;;;;;10.57;9.60;;;;;;;1.67;100.00;101385.03;5060292;28;20431;-45
2023/03/05 03:30:55;;;;;;;10.07;9.47;;;;;;;1.64;100.00;101386.09;5060315;28;20840;-44
2023/03/05 03:33:23;;;;;;;9.93;9.43;;;;;;;1.61;100.00;101381.06;5060253;28;20444;-43
2023/03/05 03:35:50;;;;;;;11.57;10.40;;;;;;;1.59;100.00;101369.84;5060423;28;20427;-44
2023/03/05 03:38:18;;;;;;;9.97;9.37;;;;;;;1.60;100.00;101368.91;5060782;28;20983;-43
2023/03/05 03:40:46;;;;;;;10.07;9.67;;;;;;;1.60;100.00;101363.66;5059960;28;20459;-46
2023/03/05 03:43:13;;;;;;;11.20;10.50;;;;;;;1.59;100.00;101358.50;5060294;28;20475;-44
2023/03/05 03:45:42;;;;;;;11.73;10.43;;;;;;;1.59;100.00;101356.72;5060773;28;20431;-43
2023/03/05 03:48:11;;;;;;;12.20;11.43;;;;;;;1.61;100.00;101357.41;5059838;28;20439;-47
2023/03/05 03:50:40;;;;;;;13.40;10.80;;;;;;;1.60;100.00;101347.88;5059271;28;20459;-44
2023/03/05 03:53:08;;;;;;;10.33;9.50;;;;;;;1.61;100.00;101346.09;5060742;28;20457;-44
2023/03/05 03:55:36;;;;;;;10.30;9.70;;;;;;;1.61;100.00;101352.16;5059505;28;20423;-44
2023/03/05 03:58:04;;;;;;;11.63;10.63;;;;;;;1.59;100.00;101340.94;5060112;28;20451;-44
2023/03/05 04:03:19;;;;;;;12.63;10.30;;;;;;;1.62;100.00;101340.69;5620868;23;20540;-47
2023/03/05 04:05:47;;;;;;;11.23;10.30;;;;;;;1.64;100.00;101349.28;4992619;28;20456;-45
2023/03/05 04:08:15;;;;;;;10.50;9.60;;;;;;;1.67;100.00;101343.78;4993614;28;20457;-46
2023/03/05 04:10:42;;;;;;;10.60;10.00;;;;;;;1.67;100.00;101342.97;4993564;28;20461;-47
2023/03/05 04:13:10;;;;;;;10.40;9.77;;;;;;;1.74;100.00;101348.53;4993424;28;20472;-48
2023/03/05 04:15:38;;;;;;;11.33;10.50;;;;;;;1.73;100.00;101342.47;4993780;28;20525;-50
2023/03/05 04:18:06;;;;;;;12.30;11.07;;;;;;;1.75;100.00;101344.94;4993337;28;20476;-48
2023/03/05 04:20:35;;;;;;;11.10;10.70;;;;;;;1.76;100.00;101336.94;4998110;28;20466;-43
2023/03/05 04:23:02;;;;;;;11.30;10.40;;;;;;;1.79;100.00;101341.13;5000376;28;20534;-51
2023/03/05 04:25:30;;;;;;;12.37;11.57;;;;;;;1.81;100.00;101333.94;5000562;28;20461;-47
2023/03/05 04:27:58;;;;;;;11.63;11.03;;;;;;;1.81;100.00;101332.13;5000235;28;20436;-46
2023/03/05 04:30:25;;;;;;;12.73;12.00;;;;;;;1.82;100.00;101327.72;4999557;28;20806;-45
2023/03/05 04:32:53;;;;;;;12.77;12.00;;;;;;;1.83;100.00;101327.59;4999387;28;20993;-46
2023/03/05 04:35:21;;;;;;;13.70;12.57;;;;;;;1.85;100.00;101306.44;4999972;28;20430;-45
2023/03/05 04:37:50;;;;;;;14.30;12.83;;;;;;;1.87;100.00;101315.03;5000129;28;20442;-48
2023/03/05 04:40:18;;;;;;;12.60;11.90;;;;;;;1.87;100.00;101307.13;4999381;28;20537;-46
2023/03/05 04:42:46;;;;;;;14.77;13.23;;;;;;;1.84;100.00;101312.63;4999035;28;20803;-44
2023/03/05 04:45:16;;;;;;;13.53;12.80;;;;;;;1.77;100.00;101308.84;4999691;28;21001;-43
2023/03/05 04:47:43;;;;;;;14.00;12.77;;;;;;;1.68;100.00;101298.13;4999197;28;20441;-44
2023/03/05 04:50:12;;;;;;;13.00;12.40;;;;;;;1.61;100.00;101291.69;4999496;28;20465;-45
2023/03/05 04:52:40;;;;;;;13.70;13.10;;;;;;;1.53;100.00;101294.13;4999472;28;20492;-46
2023/03/05 04:55:11;;;;;;;12.90;12.30;;;;;;;1.50;100.00;101289.13;4999205;28;20442;-44
2023/03/05 04:57:39;;;;;;;15.17;13.93;;;;;;;1.51;100.00;101295.22;4998844;28;20521;-46
2023/03/05 05:00:13;;;;;;;13.77;13.27;;;;;;;1.53;100.00;101294.13;4998435;28;20484;-44
2023/03/05 05:02:41;;;;;;;14.83;13.90;;;;;;;1.52;100.00;101292.44;4999078;28;20461;-45
2023/03/05 05:05:10;;;;;;;13.83;12.93;;;;;;;1.50;100.00;101297.00;4999411;28;20482;-44
2023/03/05 05:07:38;;;;;;;13.07;12.47;;;;;;;1.52;100.00;101310.03;4998927;28;20433;-46
2023/03/05 05:10:07;;;;;;;13.20;12.50;;;;;;;1.50;100.00;101299.63;4998347;28;20458;-46
2023/03/05 05:12:36;;;;;;;12.77;12.33;;;;;;;1.49;100.00;101297.13;4998721;28;22731;-44
2023/03/05 05:15:07;;;;;;;14.80;13.93;;;;;;;1.48;100.00;101291.03;4999040;28;20492;-44
2023/03/05 05:17:36;;;;;;;14.63;13.80;;;;;;;1.47;100.00;101289.38;4999275;28;20441;-45
2023/03/05 05:20:05;;;;;;;14.53;13.23;;;;;;;1.44;100.00;101286.97;4998449;28;20482;-45
2023/03/05 05:22:33;;;;;;;13.07;12.57;;;;;;;1.41;100.00;101295.13;4998569;28;20430;-49
2023/03/05 05:25:01;;;;;;;15.00;14.27;;;;;;;1.41;100.00;101286.41;4998506;28;20564;-44
2023/03/05 05:27:29;;;;;;;12.97;12.40;;;;;;;1.43;100.00;101292.38;4998660;28;21002;-44
2023/03/05 05:29:58;;;;;;;13.77;12.87;;;;;;;1.45;100.00;101286.03;4998681;28;20521;-50
2023/03/05 05:32:26;;;;;;;14.90;13.50;;;;;;;1.44;100.00;101284.34;4998811;28;20433;-47
2023/03/05 05:34:56;;;;;;;13.20;12.50;;;;;;;1.49;100.00;101281.38;4998800;28;20445;-44
2023/03/05 05:37:25;;;;;;;14.23;13.40;;;;;;;1.48;100.00;101277.91;4999014;28;20457;-51
2023/03/05 05:39:53;;;;;;;13.77;13.07;;;;;;;1.52;100.00;101274.03;4997991;28;20545;-45
2023/03/05 05:42:23;;;;;;;12.83;12.03;;;;;;;1.53;100.00;101270.47;4998649;28;20422;-45
2023/03/05 05:44:51;;;;;;;13.17;12.43;;;;;;;1.52;100.00;101273.22;4998526;28;20474;-49
2023/03/05 05:47:20;;;;;;;12.70;12.10;;;;;;;1.49;100.00;101274.28;4998869;28;20871;-47
2023/03/05 05:49:48;;;;;;;13.00;12.50;;;;;;;1.53;100.00;101285.41;4998013;28;20445;-46
2023/03/05 05:52:16;;;;;;;12.60;11.90;;;;;;;1.55;100.00;101276.41;4998135;28;20434;-46
2023/03/05 05:54:43;;;;;;;13.60;12.80;;;;;;;1.55;100.00;101279.03;4998337;28;20426;-45
2023/03/05 05:57:11;;;;;;;12.60;12.20;;;;;;;1.43;100.00;101277.44;4998398;28;20434;-45
2023/03/05 05:59:39;;;;;;;11.97;11.23;;;;;;;1.39;100.00;101281.28;4998114;28;20440;-44
2023/03/05 06:02:07;;;;;;;13.17;11.97;;;;;;;1.46;100.00;101274.56;4998158;28;20533;-46
2023/03/05 06:04:38;;;;;;;13.27;12.30;;;;;;;1.48;100.00;101277.91;4998284;28;20528;-46
2023/03/05 06:07:06;;;;;;;12.57;12.03;;;;;;;1.47;100.00;101278.84;4998374;28;20943;-44
2023/03/05 06:09:35;;;;;;;13.20;12.70;;;;;;;1.44;100.00;101279.09;4997453;28;20846;-47
2023/03/05 06:12:03;;;;;;;13.43;12.53;;;;;;;1.41;100.00;101278.50;5001263;28;20436;-47
2023/03/05 06:14:30;;;;;;;12.10;11.57;;;;;;;1.40;100.00;101285.59;5001650;28;20456;-44
2023/03/05 06:16:58;;;;;;;13.13;12.23;;;;;;;1.37;100.00;101283.19;5002278;28;20815;-43
2023/03/05 06:19:26;;;;;;;13.43;12.60;;;;;;;1.43;100.00;101280.06;5002369;28;20434;-47
2023/03/05 06:21:55;;;;;;;12.43;11.73;;;;;;;1.43;100.00;101280.06;5001741;28;20531;-47
2023/03/05 06:24:23;;;;;;;12.00;11.50;;;;;;;1.46;100.00;101279.81;5002161;28;20509;-45
2023/03/05 06:26:50;;;;;;;12.37;11.47;;;;;;;1.50;100.00;101277.75;5002034;28;20437;-44
2023/03/05 06:29:18;;;;;;;12.60;11.70;;;;;;;1.51;100.00;101274.19;5001744;28;20438;-47
2023/03/05 06:31:46;;;;;;;12.30;11.70;;;;;;;1.62;100.00;101276.75;5000821;28;20458;-47
2023/03/05 06:34:13;;;;;;;12.23;11.67;;;;;;;1.66;100.00;101275.56;5002142;28;20464;-44
2023/03/05 06:36:42;;;;;;;11.57;11.17;;;;;;;1.72;100.00;101269.78;5001974;28;20492;-47
2023/03/05 06:39:11;;;;;;;11.93;11.40;;;;;;;1.74;100.00;101264.38;5001744;28;20528;-44
2023/03/05 06:41:39;;;;;;;12.53;11.47;;;;;;;1.78;100.00;101257.94;5001392;28;20465;-47
2023/03/05 06:44:07;;;;;;;12.47;11.70;;;;;;;1.86;100.00;101266.00;5001528;28;20534;-46
2023/03/05 06:46:38;;;;;;;13.13;11.83;;;;;;;1.98;100.00;101259.72;5002139;28;20437;-44
2023/03/05 06:49:08;;;;;;;11.50;10.80;;;;;;;2.16;100.00;101252.91;5001154;28;20430;-45
2023/03/05 06:51:38;;;;;;;11.73;11.13;;;;;;;2.23;100.00;101257.53;5001288;28;20465;-48
2023/03/05 06:54:08;;;;;;;12.70;11.50;;;;;;;2.38;100.00;101254.56;5001538;28;20465;-46
2023/03/05 06:56:39;;;;;;;11.90;11.10;;;;;;;2.65;100.00;101262.72;5001878;28;20422;-48
2023/03/05 06:59:07;;;;;;;12.13;11.63;;;;;;;3.06;100.00;101249.38;5000993;28;20461;-44
2023/03/05 07:01:36;;;;;;;11.50;10.70;;;;;;;3.36;100.00;101248.44;5000542;28;20462;-46
2023/03/05 07:04:05;;;;;;;11.70;10.93;;;;;;;3.60;100.00;101248.03;5000366;28;20524;-44
2023/03/05 07:06:34;;;;;;;11.97;11.00;;;;;;;3.68;100.00;101254.28;5001263;28;20478;-45
2023/03/05 07:09:04;;;;;;;11.27;10.77;;;;;;;3.78;100.00;101247.19;5001067;28;20791;-44
2023/03/05 07:11:33;;;;;;;11.10;10.30;;;;;;;3.80;100.00;101247.03;5000427;28;20468;-44
2023/03/05 07:14:03;;;;;;;11.07;10.43;;;;;;;3.83;100.00;101242.31;5000690;28;20464;-46
2023/03/05 07:16:32;;;;;;;10.73;9.80;;;;;;;3.83;100.00;101252.88;5001401;28;20485;-44
2023/03/05 07:19:02;;;;;;;15.67;10.87;;;;;;;3.84;100.00;101241.34;5001242;28;20437;-45
2023/03/05 07:21:32;;;;;;;10.43;9.57;;;;;;;3.88;100.00;101234.81;5000748;28;20461;-46
2023/03/05 07:24:01;;;;;;;11.97;11.10;;;;;;;3.87;100.00;101243.72;4999831;28;20457;-45
2023/03/05 07:26:30;;;;;;;10.40;9.40;;;;;;;3.63;100.00;101243.31;5000951;28;20484;-44
2023/03/05 07:28:58;;;;;;;10.43;9.33;;;;;;;3.60;100.00;101248.03;5000574;28;20437;-46
2023/03/05 07:31:29;;;;;;;10.70;9.60;;;;;;;3.70;100.00;101239.13;5000446;28;20472;-44
2023/03/05 07:33:59;;;;;;;9.97;9.50;;;;;;;3.70;100.00;101235.69;5000535;28;20458;-44
2023/03/05 07:36:27;;;;;;;10.03;8.90;;;;;;;3.68;100.00;101237.59;5000244;28;20457;-44
2023/03/05 07:38:54;;;;;;;10.17;9.10;;;;;;;3.85;100.00;101239.56;5001370;28;20796;-45
2023/03/05 07:41:22;;;;;;;11.00;10.20;;;;;;;4.01;100.00;101239.78;5001162;28;20469;-50
2023/03/05 07:43:52;;;;;;;9.60;9.20;;;;;;;4.13;100.00;101233.38;5001337;28;20473;-47
2023/03/05 07:46:21;;;;;;;10.73;10.03;;;;;;;4.29;100.00;101240.69;5001100;28;20470;-45
2023/03/05 07:48:53;;;;;;;9.60;9.20;;;;;;;4.60;100.00;101231.53;5001301;28;20474;-46
2023/03/05 07:51:22;;;;;;;10.07;9.37;;;;;;;4.74;100.00;101231.06;4998911;28;20877;-44
2023/03/05 07:53:52;;;;;;;10.13;9.43;;;;;;;4.75;100.00;101230.06;5000597;28;20488;-44
2023/03/05 07:56:23;;;;;;;9.77;8.80;;;;;;;4.94;100.00;101224.69;5000532;28;20905;-44
2023/03/05 07:58:51;;;;;;;10.50;9.80;;;;;;;5.12;100.00;101221.22;5001159;28;20875;-43
2023/03/05 08:01:19;;;;;;;10.13;7.70;;;;;;;5.15;100.00;101219.09;4998462;28;20533;-44
2023/03/05 08:03:47;;;;;;;8.13;7.30;;;;;;;5.20;100.00;101210.72;4998232;28;20817;-48
2023/03/05 08:06:16;;;;;;;9.03;8.23;;;;;;;5.26;100.00;101220.69;4998086;28;20524;-48
2023/03/05 08:08:44;;;;;;;7.87;7.33;;;;;;;5.07;100.00;101220.84;4997427;28;20804;-46
2023/03/05 08:11:13;;;;;;;8.60;7.97;;;;;;;5.01;100.00;101209.91;4995865;28;20454;-46
2023/03/05 08:13:42;;;;;;;7.47;7.10;;;;;;;5.07;100.00;101216.41;4997463;28;20462;-50
2023/03/05 08:16:12;;;;;;;7.87;7.20;;;;;;;5.10;100.00;101213.44;4997330;28;20925;-45
2023/03/05 08:18:40;;;;;;;9.00;7.57;;;;;;;4.94;100.00;101219.38;4997975;28;20528;-45
2023/03/05 08:21:17;;;;;;;8.80;8.00;;;;;;;5.03;100.00;101213.22;4996526;28;20545;-45
2023/03/05 08:23:45;;;;;;;9.40;8.70;;;;;;;5.23;100.00;101215.69;4997357;28;20457;-48
2023/03/05 08:26:13;;;;;;;9.30;8.60;;;;;;;5.30;100.00;101212.31;4995960;28;20481;-48
2023/03/05 08:28:41;;;;;;;8.17;7.43;;;;;;;4.94;100.00;101208.81;4996588;28;20418;-44
2023/03/05 08:31:09;;;;;;;8.03;7.63;;;;;;;4.67;100.00;101203.56;4996030;28;20470;-44
2023/03/05 08:33:38;;;;;;;7.43;6.97;;;;;;;4.71;100.00;101212.03;4996090;28;20450;-45
2023/03/05 08:36:07;;;;;;;7.03;6.43;;;;;;;4.80;100.00;101216.41;4995945;28;20440;-44
2023/03/05 08:38:36;;;;;;;7.90;7.17;;;;;;;4.93;100.00;101209.78;4996136;28;20959;-45
2023/03/05 08:41:05;;;;;;;7.67;6.73;;;;;;;4.63;100.00;101207.44;4995367;28;20472;-44
2023/03/05 08:43:33;;;;;;;8.00;7.60;;;;;;;4.83;100.00;101203.75;4996015;28;20441;-46
2023/03/05 08:46:01;;;;;;;8.07;7.37;;;;;;;4.63;100.00;101206.66;4996397;28;21409;-46
2023/03/05 08:48:30;;;;;;;7.37;6.77;;;;;;;4.80;100.00;101200.56;4996757;28;20434;-45
2023/03/05 08:50:58;;;;;;;9.07;8.20;;;;;;;4.88;100.00;101196.19;4995113;28;20461;-44
2023/03/05 08:53:26;;;;;;;8.37;7.70;;;;;;;4.54;100.00;101205.69;4995664;28;20454;-45
2023/03/05 08:55:56;;;;;;;12.20;7.83;;;;;;;4.58;100.00;101199.16;4995401;28;20446;-48
2023/03/05 08:58:24;;;;;;;7.57;6.87;;;;;;;4.37;100.00;101203.81;4996135;28;20446;-44
2023/03/05 09:00:52;;;;;;;8.10;7.30;;;;;;;4.17;100.00;101200.44;4995303;28;20524;-45
2023/03/05 09:03:20;;;;;;;11.23;6.80;;;;;;;4.15;100.00;101201.56;4996095;28;20462;-45
2023/03/05 09:05:47;;;;;;;6.60;6.20;;;;;;;4.19;100.00;101187.91;4995964;28;20473;-47
2023/03/05 09:08:15;;;;;;;6.33;6.07;;;;;;;4.30;100.00;101186.94;4996282;28;20433;-46
2023/03/05 09:10:43;;;;;;;7.30;6.60;;;;;;;4.24;100.00;101188.31;4996071;28;20823;-45
2023/03/05 09:13:13;;;;;;;7.73;6.87;;;;;;;4.22;100.00;101186.78;4995965;28;20979;-46
2023/03/05 09:15:42;;;;;;;7.10;6.40;;;;;;;4.00;100.00;101188.00;4995961;28;21156;-45
2023/03/05 09:18:10;;;;;;;8.00;6.30;;;;;;;3.73;100.00;101182.66;4995519;28;20435;-44
2023/03/05 09:20:38;;;;;;;6.83;6.23;;;;;;;3.65;100.00;101177.22;4994902;28;20529;-44
2023/03/05 09:23:06;;;;;;;8.87;6.37;;;;;;;3.84;100.00;101183.31;4995971;28;20464;-44
2023/03/05 09:25:34;;;;;;;7.20;6.03;;;;;;;3.83;100.00;101179.00;4995553;28;21009;-46
2023/03/05 09:28:01;;;;;;;6.07;5.53;;;;;;;3.86;100.00;101178.72;4995986;28;20434;-44
2023/03/05 09:30:30;;;;;;;6.30;5.80;;;;;;;3.96;100.00;101173.41;4997326;28;20482;-48
2023/03/05 09:32:58;;;;;;;5.20;4.90;;;;;;;4.02;100.00;101177.28;4995405;28;20465;-47
2023/03/05 09:35:26;;;;;;;5.17;4.97;;;;;;;3.90;100.00;101169.56;4996547;28;20438;-46
2023/03/05 09:37:53;;;;;;;5.40;4.93;;;;;;;4.21;100.00;101174.59;4997433;28;20438;-47
2023/03/05 09:40:22;;;;;;;6.90;4.43;;;;;;;4.16;92.81;101182.94;4996501;28;20935;-45
2023/03/05 09:43:02;;;;;;;5.27;4.50;;;;;;;4.20;96.56;101171.13;4995327;28;20955;-47
2023/03/05 09:45:39;;;;;;;4.67;4.33;;;;;;;3.98;98.65;101183.81;4994972;28;20440;-46
2023/03/05 09:48:16;;;;;;;4.40;4.20;;;;;;;3.95;99.08;101181.47;4994693;28;20535;-45
2023/03/05 09:50:49;;;;;;;4.80;4.40;;;;;;;4.17;98.46;101173.22;4995975;28;20476;-46
2023/03/05 09:53:36;;;;;;;4.97;4.60;;;;;;;4.34;100.00;101175.91;4995567;28;20860;-49
2023/03/05 09:56:11;;;;;;;5.20;4.80;;;;;;;4.40;99.33;101172.69;4995785;28;20461;-44
2023/03/05 09:58:42;;;;;;;5.97;5.67;;;;;;;4.78;100.00;101171.63;4995573;28;20962;-44
2023/03/05 10:01:16;;;;;;;5.80;5.40;;;;;;;4.85;99.90;101164.78;4994579;28;20465;-45
2023/03/05 10:03:53;;;;;;;5.73;5.23;;;;;;;4.84;93.61;101159.63;4993941;28;20890;-45
2023/03/05 10:06:24;;;;;;;5.17;4.77;;;;;;;4.80;95.55;101161.78;4994586;28;20504;-47
2023/03/05 10:08:56;;;;;;;5.10;4.80;;;;;;;4.82;88.43;101172.19;4994884;28;20433;-45
2023/03/05 10:11:37;;;;;;;5.90;5.50;;;;;;;4.85;93.40;101148.09;4993628;28;21270;-46
2023/03/05 10:14:07;;;;;;;4.80;4.50;;;;;;;5.05;86.34;101152.25;4994501;28;20473;-49
2023/03/05 10:17:01;;;;;;;5.63;5.10;;;;;;;5.31;86.63;101145.25;4993664;28;20430;-43
2023/03/05 10:19:46;;;;;;;5.83;4.40;;;;;;;5.26;81.93;101146.66;4963198;28;20847;-46
2023/03/05 10:22:19;;;;;;;10.53;4.93;;;;;;;5.07;81.65;101141.53;4995349;28;20442;-45
2023/03/05 10:25:02;;;;;;;4.23;3.93;;;;;;;5.04;80.15;101132.09;4995480;28;21015;-44
2023/03/05 10:27:43;;;;;;;3.90;3.70;;;;;;;5.02;83.29;101131.41;4995324;28;20837;-45
2023/03/05 10:30:27;;;;;;;9.90;4.93;;;;;;;4.82;86.57;101124.63;4996549;28;20465;-48
2023/03/05 10:33:08;;;;;;;4.83;4.30;;;;;;;4.67;82.39;101124.31;4996039;28;20450;-44
2023/03/05 10:35:51;;;;;;;5.67;4.83;;;;;;;4.69;84.17;101134.72;4996082;28;20433;-44
2023/03/05 10:38:35;;;;;;;6.00;5.00;;;;;;;4.51;89.11;101129.41;4996967;28;20745;-45
2023/03/05 10:41:08;;;;;;;4.33;4.13;;;;;;;4.32;95.07;101119.78;4994619;28;20553;-44
2023/03/05 10:43:40;;;;;;;6.40;4.67;;;;;;;4.41;100.00;101133.91;4994755;28;20945;-45
2023/03/05 10:46:14;;;;;;;5.93;5.53;;;;;;;4.42;100.00;101139.03;4994816;28;20503;-47
2023/03/05 10:48:49;;;;;;;5.90;5.37;;;;;;;4.72;100.00;101129.16;4994918;28;21054;-46
2023/03/05 10:51:21;;;;;;;4.83;4.43;;;;;;;4.96;100.00;101110.88;4993299;28;20846;-48
2023/03/05 10:53:55;;;;;;;4.83;4.43;;;;;;;5.14;97.74;101105.59;4992615;28;20450;-48
2023/03/05 10:56:25;;;;;;;6.77;6.20;;;;;;;5.07;95.08;101099.25;4994927;28;20448;-48
2023/03/05 10:58:53;;;;;;;4.57;4.40;;;;;;;4.53;92.57;101108.97;4997269;28;20438;-46
2023/03/05 11:01:24;;;;;;;4.63;4.43;;;;;;;4.59;90.27;101099.63;4996354;28;20472;-47
2023/03/05 11:03:56;;;;;;;5.23;4.27;;;;;;;4.78;86.04;101083.63;4997709;28;20477;-48
2023/03/05 11:06:37;;;;;;;4.80;4.60;;;;;;;4.89;87.16;101097.44;4997545;28;20433;-46
2023/03/05 11:09:17;;;;;;;5.20;4.70;;;;;;;4.70;85.82;101094.94;4998036;28;20481;-48
2023/03/05 11:12:01;;;;;;;4.43;4.10;;;;;;;4.82;86.38;101091.09;4997947;28;20528;-44
2023/03/05 11:14:32;;;;;;;5.63;4.70;;;;;;;5.07;83.57;101092.16;4993950;28;20975;-47
2023/03/05 11:17:01;;;;;;;5.23;4.83;;;;;;;5.31;80.75;101087.06;4997283;28;20454;-49
2023/03/05 11:19:31;;;;;;;5.37;4.97;;;;;;;5.41;76.09;101084.28;4996493;28;20777;-46
2023/03/05 11:22:14;;;;;;;5.73;4.77;;;;;;;5.48;73.63;101090.63;4998995;28;20449;-45
2023/03/05 11:24:42;;;;;;;4.70;4.27;;;;;;;5.13;74.08;101077.50;4998005;28;20890;-45
2023/03/05 11:27:30;;;;;;;9.13;4.10;;;;;;;5.38;74.95;101076.66;4998719;28;20508;-47
2023/03/05 11:29:58;;;;;;;4.00;3.67;;;;;;;4.87;75.31;101074.78;4997259;28;20501;-46
2023/03/05 11:32:28;;;;;;;5.93;3.80;;;;;;;4.64;81.62;101076.22;4998217;28;20426;-45
2023/03/05 11:34:58;;;;;;;4.67;4.37;;;;;;;4.48;93.51;101079.50;4997103;28;20426;-46